sensor_id;sensor_type;location;lat;lon;timestamp;pressure;altitude;pressure_sealevel;temperature;humidity
11349;BME280;5729;43.570;27.826;2023-07-20T00:00:59;98450.38;;;26.75;100.00
11349;BME280;5729;43.570;27.826;2023-07-20T00:03:24;98441.06;;;26.73;100.00
11349;BME280;5729;43.570;27.826;2023-07-20T00:05:52;98434.00;;;26.72;100.00
11349;BME280;5729;43.570;27.826;2023-07-20T00:08:17;98427.22;;;26.73;100.00
11349;BME280;5729;43.570;27.826;2023-07-20T00:10:44;98441.59;;;26.77;100.00
11349;BME280;5729;43.570;27.826;2023-07-20T00:13:13;98450.94;;;26.80;100.00
11349;BME280;5729;43.570;27.826;2023-07-20T00:15:38;98448.88;;;26.74;100.00
11349;BME280;5729;43.570;27.826;2023-07-20T00:18:04;98452.31;;;26.69;100.00
11349;BME280;5729;43.570;27.826;2023-07-20T00:20:30;98460.78;;;26.66;100.00
11349;BME280;5729;43.570;27.826;2023-07-20T00:22:55;98457.72;;;26.64;100.00
11349;BME280;5729;43.570;27.826;2023-07-20T00:25:23;98454.81;;;26.53;100.00
11349;BME280;5729;43.570;27.826;2023-07-20T00:27:48;98456.72;;;26.47;100.00
11349;BME280;5729;43.570;27.826;2023-07-20T00:30:14;98460.91;;;26.42;100.00
11349;BME280;5729;43.570;27.826;2023-07-20T00:32:39;98459.97;;;26.30;100.00
11349;BME280;5729;43.570;27.826;2023-07-20T00:35:05;98453.47;;;26.19;100.00
11349;BME280;5729;43.570;27.826;2023-07-20T00:37:31;98448.72;;;26.19;100.00
11349;BME280;5729;43.570;27.826;2023-07-20T00:39:56;98448.53;;;26.23;100.00
11349;BME280;5729;43.570;27.826;2023-07-20T00:42:22;98450.06;;;26.24;100.00
11349;BME280;5729;43.570;27.826;2023-07-20T00:44:47;98438.06;;;26.27;100.00
11349;BME280;5729;43.570;27.826;2023-07-20T00:47:13;98447.13;;;26.27;100.00
11349;BME280;5729;43.570;27.826;2023-07-20T00:49:39;98443.69;;;26.32;100.00
11349;BME280;5729;43.570;27.826;2023-07-20T00:52:06;98443.78;;;26.38;100.00
11349;BME280;5729;43.570;27.826;2023-07-20T00:54:32;98441.88;;;26.44;100.00
11349;BME280;5729;43.570;27.826;2023-07-20T00:56:58;98443.50;;;26.51;100.00
11349;BME280;5729;43.570;27.826;2023-07-20T00:59:24;98437.97;;;26.51;100.00
11349;BME280;5729;43.570;27.826;2023-07-20T01:01:49;98436.16;;;26.48;100.00
11349;BME280;5729;43.570;27.826;2023-07-20T01:04:15;98429.28;;;26.43;100.00
11349;BME280;5729;43.570;27.826;2023-07-20T01:12:33;98434.91;;;26.49;100.00
11349;BME280;5729;43.570;27.826;2023-07-20T01:15:01;98418.47;;;26.39;100.00
11349;BME280;5729;43.570;27.826;2023-07-20T01:17:26;98437.56;;;26.43;100.00
11349;BME280;5729;43.570;27.826;2023-07-20T01:19:52;98439.50;;;26.37;100.00
11349;BME280;5729;43.570;27.826;2023-07-20T01:23:17;98433.56;;;26.44;100.00
11349;BME280;5729;43.570;27.826;2023-07-20T01:29:05;98427.09;;;26.47;100.00
11349;BME280;5729;43.570;27.826;2023-07-20T01:31:36;98439.28;;;26.55;100.00
11349;BME280;5729;43.570;27.826;2023-07-20T01:34:03;98456.72;;;26.47;100.00
11349;BME280;5729;43.570;27.826;2023-07-20T01:36:33;98479.03;;;26.43;100.00
11349;BME280;5729;43.570;27.826;2023-07-20T01:38:59;98506.88;;;26.39;100.00
11349;BME280;5729;43.570;27.826;2023-07-20T01:41:25;98514.28;;;26.33;100.00
11349;BME280;5729;43.570;27.826;2023-07-20T01:43:51;98522.50;;;26.28;100.00
11349;BME280;5729;43.570;27.826;2023-07-20T01:46:16;98519.97;;;26.15;100.00
11349;BME280;5729;43.570;27.826;2023-07-20T01:48:42;98537.66;;;26.09;100.00
11349;BME280;5729;43.570;27.826;2023-07-20T01:51:08;98556.72;;;26.07;100.00
11349;BME280;5729;43.570;27.826;2023-07-20T01:53:33;98516.06;;;26.07;100.00
11349;BME280;5729;43.570;27.826;2023-07-20T01:55:59;98546.25;;;26.11;100.00
11349;BME280;5729;43.570;27.826;2023-07-20T01:58:24;98549.50;;;26.24;100.00
11349;BME280;5729;43.570;27.826;2023-07-20T02:00:50;98540.66;;;26.34;100.00
11349;BME280;5729;43.570;27.826;2023-07-20T02:03:15;98549.84;;;26.41;100.00
11349;BME280;5729;43.570;27.826;2023-07-20T02:05:44;98540.03;;;26.39;100.00
11349;BME280;5729;43.570;27.826;2023-07-20T02:08:09;98528.38;;;26.50;100.00
11349;BME280;5729;43.570;27.826;2023-07-20T02:10:35;98526.88;;;26.49;100.00
11349;BME280;5729;43.570;27.826;2023-07-20T02:13:01;98531.63;;;26.49;100.00
11349;BME280;5729;43.570;27.826;2023-07-20T02:15:26;98526.09;;;26.49;100.00
11349;BME280;5729;43.570;27.826;2023-07-20T02:17:53;98527.63;;;26.50;100.00
11349;BME280;5729;43.570;27.826;2023-07-20T02:20:18;98527.53;;;26.44;100.00
11349;BME280;5729;43.570;27.826;2023-07-20T02:22:44;98523.53;;;26.45;100.00
11349;BME280;5729;43.570;27.826;2023-07-20T02:25:10;98510.66;;;26.42;100.00
11349;BME280;5729;43.570;27.826;2023-07-20T02:27:37;98504.00;;;26.49;100.00
11349;BME280;5729;43.570;27.826;2023-07-20T02:30:03;98499.72;;;26.48;100.00
11349;BME280;5729;43.570;27.826;2023-07-20T02:32:29;98496.75;;;26.51;100.00
11349;BME280;5729;43.570;27.826;2023-07-20T02:34:55;98483.78;;;26.57;100.00
11349;BME280;5729;43.570;27.826;2023-07-20T02:37:21;98481.00;;;26.57;100.00
11349;BME280;5729;43.570;27.826;2023-07-20T02:39:46;98476.44;;;26.54;100.00
11349;BME280;5729;43.570;27.826;2023-07-20T02:42:11;98473.19;;;26.56;100.00
11349;BME280;5729;43.570;27.826;2023-07-20T02:44:38;98455.03;;;26.49;100.00
11349;BME280;5729;43.570;27.826;2023-07-20T02:47:04;98465.13;;;26.52;100.00
11349;BME280;5729;43.570;27.826;2023-07-20T02:49:29;98464.63;;;26.54;100.00
11349;BME280;5729;43.570;27.826;2023-07-20T02:51:56;98467.88;;;26.52;100.00
11349;BME280;5729;43.570;27.826;2023-07-20T02:54:22;98455.50;;;26.48;100.00
11349;BME280;5729;43.570;27.826;2023-07-20T02:56:47;98457.91;;;26.40;100.00
11349;BME280;5729;43.570;27.826;2023-07-20T02:59:13;98450.28;;;26.35;100.00
11349;BME280;5729;43.570;27.826;2023-07-20T03:01:38;98456.09;;;26.37;100.00
11349;BME280;5729;43.570;27.826;2023-07-20T03:04:04;98450.09;;;26.38;100.00
11349;BME280;5729;43.570;27.826;2023-07-20T03:06:29;98436.47;;;26.35;100.00
11349;BME280;5729;43.570;27.826;2023-07-20T03:08:55;98443.97;;;26.34;100.00
11349;BME280;5729;43.570;27.826;2023-07-20T03:11:20;98421.19;;;26.25;100.00
11349;BME280;5729;43.570;27.826;2023-07-20T03:13:47;98439.97;;;26.35;100.00
11349;BME280;5729;43.570;27.826;2023-07-20T03:16:14;98425.34;;;26.29;100.00
11349;BME280;5729;43.570;27.826;2023-07-20T03:18:43;98422.63;;;26.35;100.00
11349;BME280;5729;43.570;27.826;2023-07-20T03:21:09;98410.00;;;26.28;100.00
11349;BME280;5729;43.570;27.826;2023-07-20T03:23:37;98423.97;;;26.39;100.00
11349;BME280;5729;43.570;27.826;2023-07-20T03:26:02;98397.00;;;26.34;100.00
11349;BME280;5729;43.570;27.826;2023-07-20T03:28:28;98407.09;;;26.52;100.00
11349;BME280;5729;43.570;27.826;2023-07-20T03:30:54;98375.84;;;26.46;100.00
11349;BME280;5729;43.570;27.826;2023-07-20T03:33:25;98377.72;;;26.55;100.00
11349;BME280;5729;43.570;27.826;2023-07-20T03:35:50;98362.94;;;26.58;100.00
11349;BME280;5729;43.570;27.826;2023-07-20T03:38:16;98342.00;;;26.51;100.00
11349;BME280;5729;43.570;27.826;2023-07-20T03:40:56;98336.63;;;26.62;100.00
11349;BME280;5729;43.570;27.826;2023-07-20T03:43:22;98331.16;;;26.68;100.00
11349;BME280;5729;43.570;27.826;2023-07-20T03:45:49;98316.38;;;26.71;100.00
11349;BME280;5729;43.570;27.826;2023-07-20T03:48:18;98308.91;;;26.77;100.00
11349;BME280;5729;43.570;27.826;2023-07-20T03:50:47;98290.13;;;26.81;100.00
11349;BME280;5729;43.570;27.826;2023-07-20T03:53:13;98290.16;;;26.87;100.00
11349;BME280;5729;43.570;27.826;2023-07-20T03:55:39;98305.31;;;26.91;100.00
11349;BME280;5729;43.570;27.826;2023-07-20T03:58:08;98303.41;;;26.97;100.00
11349;BME280;5729;43.570;27.826;2023-07-20T04:00:34;98294.88;;;27.01;100.00
11349;BME280;5729;43.570;27.826;2023-07-20T04:03:00;98283.13;;;27.06;100.00
11349;BME280;5729;43.570;27.826;2023-07-20T04:05:26;98264.31;;;27.10;100.00
11349;BME280;5729;43.570;27.826;2023-07-20T04:07:51;98265.41;;;27.18;100.00
11349;BME280;5729;43.570;27.826;2023-07-20T04:10:18;98277.28;;;27.24;100.00
11349;BME280;5729;43.570;27.826;2023-07-20T04:12:44;98298.72;;;27.29;100.00
11349;BME280;5729;43.570;27.826;2023-07-20T04:15:10;98305.53;;;27.34;100.00
11349;BME280;5729;43.570;27.826;2023-07-20T04:17:35;98329.94;;;27.35;100.00
11349;BME280;5729;43.570;27.826;2023-07-20T04:20:01;98340.81;;;27.39;100.00
11349;BME280;5729;43.570;27.826;2023-07-20T04:22:27;98359.41;;;27.38;100.00
11349;BME280;5729;43.570;27.826;2023-07-20T04:24:52;98373.06;;;27.42;100.00
11349;BME280;5729;43.570;27.826;2023-07-20T04:27:18;98369.25;;;27.39;100.00
11349;BME280;5729;43.570;27.826;2023-07-20T04:29:43;98385.28;;;27.35;100.00
11349;BME280;5729;43.570;27.826;2023-07-20T04:32:08;98386.13;;;27.21;100.00
11349;BME280;5729;43.570;27.826;2023-07-20T04:34:34;98410.63;;;27.28;100.00
11349;BME280;5729;43.570;27.826;2023-07-20T04:37:05;98418.44;;;27.30;100.00
11349;BME280;5729;43.570;27.826;2023-07-20T04:39:31;98406.91;;;27.31;100.00
11349;BME280;5729;43.570;27.826;2023-07-20T04:41:56;98405.78;;;27.23;100.00
11349;BME280;5729;43.570;27.826;2023-07-20T04:44:22;98425.28;;;27.34;100.00
11349;BME280;5729;43.570;27.826;2023-07-20T04:46:47;98406.63;;;27.29;100.00
11349;BME280;5729;43.570;27.826;2023-07-20T04:49:13;98425.00;;;27.12;100.00
11349;BME280;5729;43.570;27.826;2023-07-20T04:51:39;98424.03;;;27.15;100.00
11349;BME280;5729;43.570;27.826;2023-07-20T04:54:04;98415.75;;;27.15;100.00
11349;BME280;5729;43.570;27.826;2023-07-20T04:56:30;98436.06;;;27.12;100.00
11349;BME280;5729;43.570;27.826;2023-07-20T04:58:55;98424.88;;;27.01;100.00
11349;BME280;5729;43.570;27.826;2023-07-20T05:01:22;98434.25;;;27.09;100.00
11349;BME280;5729;43.570;27.826;2023-07-20T05:03:48;98427.16;;;27.02;100.00
11349;BME280;5729;43.570;27.826;2023-07-20T05:06:14;98429.91;;;27.02;100.00
11349;BME280;5729;43.570;27.826;2023-07-20T05:08:40;98434.97;;;27.04;100.00
11349;BME280;5729;43.570;27.826;2023-07-20T05:11:05;98419.13;;;27.04;100.00
11349;BME280;5729;43.570;27.826;2023-07-20T05:13:31;98414.56;;;27.22;100.00
11349;BME280;5729;43.570;27.826;2023-07-20T05:15:56;98379.16;;;27.05;100.00
11349;BME280;5729;43.570;27.826;2023-07-20T05:18:22;98412.69;;;27.33;100.00
11349;BME280;5729;43.570;27.826;2023-07-20T05:20:48;98438.81;;;27.32;100.00
11349;BME280;5729;43.570;27.826;2023-07-20T05:23:14;98439.94;;;27.20;100.00
11349;BME280;5729;43.570;27.826;2023-07-20T05:25:40;98450.13;;;27.29;100.00
11349;BME280;5729;43.570;27.826;2023-07-20T05:28:06;98463.72;;;27.32;100.00
11349;BME280;5729;43.570;27.826;2023-07-20T05:30:31;98454.19;;;27.33;100.00
11349;BME280;5729;43.570;27.826;2023-07-20T05:32:57;98459.47;;;27.31;100.00
11349;BME280;5729;43.570;27.826;2023-07-20T05:35:23;98456.91;;;27.28;100.00
11349;BME280;5729;43.570;27.826;2023-07-20T05:37:48;98450.50;;;27.01;100.00
11349;BME280;5729;43.570;27.826;2023-07-20T05:40:14;98438.69;;;27.01;100.00
11349;BME280;5729;43.570;27.826;2023-07-20T05:42:44;98453.22;;;26.96;100.00
11349;BME280;5729;43.570;27.826;2023-07-20T05:45:09;98466.09;;;26.84;100.00
11349;BME280;5729;43.570;27.826;2023-07-20T05:47:35;98475.81;;;26.80;100.00
11349;BME280;5729;43.570;27.826;2023-07-20T05:50:00;98469.69;;;26.90;100.00
11349;BME280;5729;43.570;27.826;2023-07-20T05:52:26;98483.75;;;26.72;100.00
11349;BME280;5729;43.570;27.826;2023-07-20T05:54:51;98494.81;;;26.72;100.00
11349;BME280;5729;43.570;27.826;2023-07-20T05:57:17;98500.53;;;26.68;100.00
11349;BME280;5729;43.570;27.826;2023-07-20T05:59:42;98517.41;;;26.70;100.00
11349;BME280;5729;43.570;27.826;2023-07-20T06:02:10;98512.63;;;26.71;100.00
11349;BME280;5729;43.570;27.826;2023-07-20T06:04:35;98522.19;;;26.55;100.00
11349;BME280;5729;43.570;27.826;2023-07-20T06:07:01;98530.88;;;26.63;100.00
11349;BME280;5729;43.570;27.826;2023-07-20T06:09:27;98530.88;;;26.63;100.00
11349;BME280;5729;43.570;27.826;2023-07-20T06:11:52;98518.66;;;26.55;100.00
11349;BME280;5729;43.570;27.826;2023-07-20T06:14:18;98532.97;;;26.38;100.00
11349;BME280;5729;43.570;27.826;2023-07-20T06:16:44;98547.78;;;26.26;100.00
11349;BME280;5729;43.570;27.826;2023-07-20T06:19:09;98534.53;;;26.16;100.00
11349;BME280;5729;43.570;27.826;2023-07-20T06:36:51;98518.81;;;26.81;100.00
11349;BME280;5729;43.570;27.826;2023-07-20T06:39:17;98503.94;;;26.78;100.00
11349;BME280;5729;43.570;27.826;2023-07-20T06:41:42;98508.25;;;26.64;100.00
11349;BME280;5729;43.570;27.826;2023-07-20T06:44:08;98506.84;;;26.54;100.00
11349;BME280;5729;43.570;27.826;2023-07-20T06:46:33;98507.63;;;26.40;100.00
11349;BME280;5729;43.570;27.826;2023-07-20T06:48:58;98511.81;;;26.35;100.00
11349;BME280;5729;43.570;27.826;2023-07-20T06:51:24;98514.97;;;26.28;100.00
11349;BME280;5729;43.570;27.826;2023-07-20T06:53:49;98500.38;;;26.28;100.00
11349;BME280;5729;43.570;27.826;2023-07-20T06:56:15;98493.50;;;26.23;100.00
11349;BME280;5729;43.570;27.826;2023-07-20T06:58:40;98492.16;;;26.19;100.00
11349;BME280;5729;43.570;27.826;2023-07-20T07:01:07;98497.97;;;26.21;100.00
11349;BME280;5729;43.570;27.826;2023-07-20T07:03:32;98483.22;;;26.24;100.00
11349;BME280;5729;43.570;27.826;2023-07-20T07:05:58;98482.53;;;26.14;100.00
11349;BME280;5729;43.570;27.826;2023-07-20T07:08:24;98480.16;;;26.22;100.00
11349;BME280;5729;43.570;27.826;2023-07-20T07:10:50;98493.13;;;26.30;100.00
11349;BME280;5729;43.570;27.826;2023-07-20T07:13:15;98503.63;;;26.41;100.00
11349;BME280;5729;43.570;27.826;2023-07-20T07:15:40;98496.19;;;26.47;100.00
11349;BME280;5729;43.570;27.826;2023-07-20T07:18:06;98486.28;;;26.41;100.00
11349;BME280;5729;43.570;27.826;2023-07-20T07:20:31;98479.78;;;26.44;100.00
11349;BME280;5729;43.570;27.826;2023-07-20T07:22:57;98476.00;;;26.41;100.00
11349;BME280;5729;43.570;27.826;2023-07-20T07:25:23;98473.66;;;26.54;100.00
11349;BME280;5729;43.570;27.826;2023-07-20T07:27:48;98474.91;;;26.68;100.00
11349;BME280;5729;43.570;27.826;2023-07-20T07:30:13;98478.31;;;26.92;100.00
11349;BME280;5729;43.570;27.826;2023-07-20T07:32:39;98467.72;;;27.11;100.00
11349;BME280;5729;43.570;27.826;2023-07-20T07:35:05;98469.53;;;27.14;100.00
11349;BME280;5729;43.570;27.826;2023-07-20T07:37:30;98481.97;;;27.04;100.00
11349;BME280;5729;43.570;27.826;2023-07-20T07:39:56;98486.75;;;27.03;100.00
11349;BME280;5729;43.570;27.826;2023-07-20T07:42:22;98491.53;;;27.03;100.00
11349;BME280;5729;43.570;27.826;2023-07-20T07:44:49;98483.50;;;27.05;100.00
11349;BME280;5729;43.570;27.826;2023-07-20T07:47:14;98475.97;;;27.05;100.00
11349;BME280;5729;43.570;27.826;2023-07-20T07:49:40;98468.91;;;27.04;100.00
11349;BME280;5729;43.570;27.826;2023-07-20T07:52:06;98467.59;;;27.00;100.00
11349;BME280;5729;43.570;27.826;2023-07-20T07:54:31;98479.41;;;27.00;100.00
11349;BME280;5729;43.570;27.826;2023-07-20T07:56:57;98471.41;;;27.02;100.00
11349;BME280;5729;43.570;27.826;2023-07-20T07:59:22;98463.63;;;26.86;100.00
11349;BME280;5729;43.570;27.826;2023-07-20T08:01:48;98466.84;;;26.85;100.00
11349;BME280;5729;43.570;27.826;2023-07-20T08:04:13;98473.53;;;26.78;100.00
11349;BME280;5729;43.570;27.826;2023-07-20T08:06:39;98473.06;;;26.80;100.00
11349;BME280;5729;43.570;27.826;2023-07-20T08:09:04;98482.59;;;26.79;100.00
11349;BME280;5729;43.570;27.826;2023-07-20T08:11:30;98488.69;;;26.83;100.00
11349;BME280;5729;43.570;27.826;2023-07-20T08:13:56;98490.00;;;26.87;100.00
11349;BME280;5729;43.570;27.826;2023-07-20T08:16:22;98485.03;;;26.91;100.00
11349;BME280;5729;43.570;27.826;2023-07-20T08:18:47;98481.41;;;27.00;100.00
11349;BME280;5729;43.570;27.826;2023-07-20T08:21:13;98489.66;;;27.15;100.00
11349;BME280;5729;43.570;27.826;2023-07-20T08:23:38;98482.94;;;27.21;100.00
11349;BME280;5729;43.570;27.826;2023-07-20T08:26:04;98491.81;;;27.45;100.00
11349;BME280;5729;43.570;27.826;2023-07-20T08:28:29;98488.38;;;27.71;100.00
11349;BME280;5729;43.570;27.826;2023-07-20T08:30:55;98490.25;;;28.05;100.00
11349;BME280;5729;43.570;27.826;2023-07-20T08:33:20;98480.59;;;28.52;100.00
11349;BME280;5729;43.570;27.826;2023-07-20T08:35:46;98488.28;;;29.06;100.00
11349;BME280;5729;43.570;27.826;2023-07-20T08:38:12;98484.84;;;29.22;100.00
11349;BME280;5729;43.570;27.826;2023-07-20T08:40:46;98486.25;;;29.43;100.00
11349;BME280;5729;43.570;27.826;2023-07-20T08:43:12;98486.94;;;30.92;100.00
11349;BME280;5729;43.570;27.826;2023-07-20T08:45:41;98476.31;;;32.12;100.00
11349;BME280;5729;43.570;27.826;2023-07-20T08:48:07;98473.69;;;32.61;100.00
11349;BME280;5729;43.570;27.826;2023-07-20T08:50:34;98474.06;;;32.46;100.00
11349;BME280;5729;43.570;27.826;2023-07-20T08:53:00;98461.16;;;32.67;100.00
11349;BME280;5729;43.570;27.826;2023-07-20T08:55:26;98478.75;;;32.87;100.00
11349;BME280;5729;43.570;27.826;2023-07-20T08:57:56;98477.09;;;33.02;97.30
11349;BME280;5729;43.570;27.826;2023-07-20T09:00:24;98478.53;;;32.85;100.00
11349;BME280;5729;43.570;27.826;2023-07-20T09:02:51;98479.78;;;32.59;98.45
11349;BME280;5729;43.570;27.826;2023-07-20T09:05:20;98482.53;;;33.13;100.00
11349;BME280;5729;43.570;27.826;2023-07-20T09:07:46;98469.41;;;34.27;94.03
11349;BME280;5729;43.570;27.826;2023-07-20T09:10:12;98481.59;;;36.00;78.59
11349;BME280;5729;43.570;27.826;2023-07-20T09:12:39;98473.28;;;37.27;61.82
11349;BME280;5729;43.570;27.826;2023-07-20T09:15:06;98477.41;;;38.36;63.14
11349;BME280;5729;43.570;27.826;2023-07-20T09:17:32;98468.06;;;39.50;53.96
11349;BME280;5729;43.570;27.826;2023-07-20T09:19:58;98471.66;;;40.65;46.57
11349;BME280;5729;43.570;27.826;2023-07-20T09:22:32;98461.00;;;41.50;46.58
11349;BME280;5729;43.570;27.826;2023-07-20T09:24:58;98454.81;;;42.05;37.90
11349;BME280;5729;43.570;27.826;2023-07-20T09:27:43;98469.53;;;42.03;37.49
11349;BME280;5729;43.570;27.826;2023-07-20T09:30:10;98467.97;;;41.66;36.94
11349;BME280;5729;43.570;27.826;2023-07-20T09:32:47;98472.25;;;41.40;37.08
11349;BME280;5729;43.570;27.826;2023-07-20T09:35:16;98457.84;;;41.11;39.85
11349;BME280;5729;43.570;27.826;2023-07-20T09:40:20;98464.09;;;40.68;38.89
11349;BME280;5729;43.570;27.826;2023-07-20T09:42:46;98466.81;;;40.08;38.33
11349;BME280;5729;43.570;27.826;2023-07-20T09:45:12;98450.19;;;39.40;41.35
11349;BME280;5729;43.570;27.826;2023-07-20T09:47:38;98450.50;;;38.96;41.46
11349;BME280;5729;43.570;27.826;2023-07-20T09:50:05;98444.53;;;38.08;40.93
11349;BME280;5729;43.570;27.826;2023-07-20T09:52:39;98452.00;;;37.11;44.50
11349;BME280;5729;43.570;27.826;2023-07-20T09:55:14;98444.09;;;37.02;43.99
11349;BME280;5729;43.570;27.826;2023-07-20T09:57:40;98444.66;;;37.00;46.79
11349;BME280;5729;43.570;27.826;2023-07-20T10:00:07;98448.50;;;37.18;57.11
11349;BME280;5729;43.570;27.826;2023-07-20T10:02:43;98458.47;;;37.27;52.42
11349;BME280;5729;43.570;27.826;2023-07-20T10:05:14;98442.28;;;37.12;64.51
11349;BME280;5729;43.570;27.826;2023-07-20T10:07:50;98433.22;;;37.34;53.10
11349;BME280;5729;43.570;27.826;2023-07-20T10:10:17;98434.22;;;37.52;46.22
11349;BME280;5729;43.570;27.826;2023-07-20T10:12:45;98436.91;;;37.65;45.14
11349;BME280;5729;43.570;27.826;2023-07-20T10:15:18;98439.66;;;37.50;46.83
11349;BME280;5729;43.570;27.826;2023-07-20T10:20:35;98423.47;;;36.99;52.05
11349;BME280;5729;43.570;27.826;2023-07-20T10:23:02;98400.63;;;37.03;49.07
11349;BME280;5729;43.570;27.826;2023-07-20T10:25:28;98410.75;;;36.98;59.34
11349;BME280;5729;43.570;27.826;2023-07-20T10:27:54;98417.06;;;37.27;60.70
11349;BME280;5729;43.570;27.826;2023-07-20T10:30:20;98399.94;;;37.10;44.24
11349;BME280;5729;43.570;27.826;2023-07-20T10:32:47;98410.81;;;36.78;46.05
11349;BME280;5729;43.570;27.826;2023-07-20T10:35:16;98400.41;;;36.65;51.64
11349;BME280;5729;43.570;27.826;2023-07-20T10:37:52;98405.94;;;37.14;62.50
11349;BME280;5729;43.570;27.826;2023-07-20T10:40:37;98402.81;;;37.69;54.38
11349;BME280;5729;43.570;27.826;2023-07-20T10:43:07;98400.50;;;37.60;47.69
11349;BME280;5729;43.570;27.826;2023-07-20T10:45:39;98396.25;;;37.82;46.73
11349;BME280;5729;43.570;27.826;2023-07-20T10:48:05;98398.34;;;37.89;44.53
11349;BME280;5729;43.570;27.826;2023-07-20T10:50:33;98391.09;;;36.98;42.86
11349;BME280;5729;43.570;27.826;2023-07-20T10:53:16;98386.44;;;37.08;58.04
11349;BME280;5729;43.570;27.826;2023-07-20T10:55:42;98384.31;;;37.30;46.27
11349;BME280;5729;43.570;27.826;2023-07-20T10:58:15;98385.63;;;37.36;61.23
11349;BME280;5729;43.570;27.826;2023-07-20T11:01:02;98380.81;;;37.60;52.66
11349;BME280;5729;43.570;27.826;2023-07-20T11:03:38;98366.75;;;37.52;51.49
11349;BME280;5729;43.570;27.826;2023-07-20T11:08:54;98378.84;;;36.31;53.15
11349;BME280;5729;43.570;27.826;2023-07-20T11:16:43;98368.00;;;36.92;60.22
11349;BME280;5729;43.570;27.826;2023-07-20T11:19:25;98365.25;;;37.43;52.13
11349;BME280;5729;43.570;27.826;2023-07-20T11:21:59;98354.75;;;37.59;47.51
11349;BME280;5729;43.570;27.826;2023-07-20T11:24:25;98355.91;;;37.56;46.57
11349;BME280;5729;43.570;27.826;2023-07-20T11:26:52;98341.28;;;37.58;46.63
11349;BME280;5729;43.570;27.826;2023-07-20T11:29:22;98340.16;;;37.53;53.52
11349;BME280;5729;43.570;27.826;2023-07-20T11:31:49;98331.88;;;37.40;49.24
11349;BME280;5729;43.570;27.826;2023-07-20T11:36:47;98319.59;;;38.11;47.72
11349;BME280;5729;43.570;27.826;2023-07-20T11:39:14;98312.09;;;38.22;48.08
11349;BME280;5729;43.570;27.826;2023-07-20T11:41:44;98318.25;;;38.58;53.74
11349;BME280;5729;43.570;27.826;2023-07-20T11:44:10;98310.44;;;38.89;52.49
11349;BME280;5729;43.570;27.826;2023-07-20T11:46:39;98315.38;;;39.21;41.84
11349;BME280;5729;43.570;27.826;2023-07-20T11:49:05;98311.16;;;39.37;45.50
11349;BME280;5729;43.570;27.826;2023-07-20T11:51:31;98311.25;;;39.54;47.60
11349;BME280;5729;43.570;27.826;2023-07-20T11:53:57;98305.88;;;39.66;41.30
11349;BME280;5729;43.570;27.826;2023-07-20T11:56:24;98305.13;;;39.66;43.11
11349;BME280;5729;43.570;27.826;2023-07-20T11:58:54;98304.97;;;39.64;40.93
11349;BME280;5729;43.570;27.826;2023-07-20T12:01:20;98315.44;;;39.71;45.27
11349;BME280;5729;43.570;27.826;2023-07-20T12:03:48;98309.34;;;40.07;41.84
11349;BME280;5729;43.570;27.826;2023-07-20T12:06:13;98308.94;;;40.10;40.11
11349;BME280;5729;43.570;27.826;2023-07-20T12:08:40;98296.13;;;39.92;46.53
11349;BME280;5729;43.570;27.826;2023-07-20T12:11:07;98302.78;;;40.04;40.38
11349;BME280;5729;43.570;27.826;2023-07-20T12:13:42;98295.81;;;40.22;46.79
11349;BME280;5729;43.570;27.826;2023-07-20T12:16:17;98284.84;;;40.51;38.44
11349;BME280;5729;43.570;27.826;2023-07-20T12:18:43;98281.75;;;40.40;38.99
11349;BME280;5729;43.570;27.826;2023-07-20T12:21:10;98288.66;;;40.46;39.07
11349;BME280;5729;43.570;27.826;2023-07-20T12:23:39;98292.22;;;40.30;40.46
11349;BME280;5729;43.570;27.826;2023-07-20T12:26:14;98280.75;;;40.28;46.49
11349;BME280;5729;43.570;27.826;2023-07-20T12:28:40;98285.91;;;40.39;44.33
11349;BME280;5729;43.570;27.826;2023-07-20T12:31:07;98277.25;;;40.54;45.03
11349;BME280;5729;43.570;27.826;2023-07-20T12:33:33;98270.78;;;40.78;39.94
11349;BME280;5729;43.570;27.826;2023-07-20T12:36:00;98285.22;;;40.82;42.18
11349;BME280;5729;43.570;27.826;2023-07-20T12:38:26;98281.25;;;40.85;38.50
11349;BME280;5729;43.570;27.826;2023-07-20T12:40:53;98274.56;;;40.90;37.65
11349;BME280;5729;43.570;27.826;2023-07-20T12:43:21;98273.13;;;40.99;36.94
11349;BME280;5729;43.570;27.826;2023-07-20T12:45:46;98275.66;;;40.95;37.92
11349;BME280;5729;43.570;27.826;2023-07-20T12:48:12;98273.94;;;40.82;41.35
11349;BME280;5729;43.570;27.826;2023-07-20T12:50:37;98268.88;;;40.81;38.73
11349;BME280;5729;43.570;27.826;2023-07-20T12:53:03;98276.22;;;40.93;35.47
11349;BME280;5729;43.570;27.826;2023-07-20T12:55:29;98272.94;;;40.70;38.44
11349;BME280;5729;43.570;27.826;2023-07-20T12:57:54;98279.25;;;40.61;33.98
11349;BME280;5729;43.570;27.826;2023-07-20T13:00:20;98277.63;;;40.41;36.97
11349;BME280;5729;43.570;27.826;2023-07-20T13:02:47;98278.19;;;39.97;35.05
11349;BME280;5729;43.570;27.826;2023-07-20T13:05:12;98275.31;;;39.80;36.24
11349;BME280;5729;43.570;27.826;2023-07-20T13:07:39;98275.09;;;39.61;34.59
11349;BME280;5729;43.570;27.826;2023-07-20T13:10:05;98269.13;;;39.24;36.20
11349;BME280;5729;43.570;27.826;2023-07-20T13:12:32;98279.09;;;39.25;35.35
11349;BME280;5729;43.570;27.826;2023-07-20T13:14:58;98279.41;;;39.29;41.35
11349;BME280;5729;43.570;27.826;2023-07-20T13:17:27;98273.72;;;39.44;37.83
11349;BME280;5729;43.570;27.826;2023-07-20T13:19:53;98267.38;;;39.36;38.95
11349;BME280;5729;43.570;27.826;2023-07-20T13:22:19;98264.38;;;39.34;37.58
11349;BME280;5729;43.570;27.826;2023-07-20T13:24:45;98266.75;;;39.45;36.58
11349;BME280;5729;43.570;27.826;2023-07-20T13:27:17;98263.75;;;39.68;36.03
11349;BME280;5729;43.570;27.826;2023-07-20T13:29:43;98263.69;;;39.76;37.20
11349;BME280;5729;43.570;27.826;2023-07-20T13:32:09;98256.22;;;39.71;39.92